Time;durP1;ratioP1;P1;durP2;ratioP2;P2;SDS_P1;SDS_P2;PMS_P1;PMS_P2;Temp;Humidity;BMP_temperature;BMP_pressure;BME280_temperature;BME280_humidity;BME280_pressure;Samples;Min_cycle;Max_cycle;Signal;HPM_P1;HPM_P2
2022/08/13 04:06:02;;;;;;;2.57;2.47;;;14.90;99.90;;;;;;4934072;29;20477;-66
2022/08/13 04:08:34;;;;;;;2.87;2.67;;;14.80;99.90;;;;;;4936445;29;20427;-66
2022/08/13 04:11:05;;;;;;;2.90;2.70;;;14.80;99.90;;;;;;4936378;29;20486;-65
2022/08/13 04:13:36;;;;;;;2.20;2.10;;;14.80;99.90;;;;;;4950822;28;20534;-66
2022/08/13 04:16:16;;;;;;;2.77;2.57;;;14.90;99.90;;;;;;4936433;28;20420;-66
2022/08/13 04:18:44;;;;;;;2.40;2.30;;;14.90;99.90;;;;;;4927787;29;20465;-66
2022/08/13 04:21:14;;;;;;;2.40;2.20;;;14.90;99.90;;;;;;4921161;29;20427;-66
2022/08/13 04:23:42;;;;;;;2.93;2.73;;;14.80;99.90;;;;;;4916897;29;20440;-66
2022/08/13 04:26:09;;;;;;;2.80;2.67;;;14.80;99.90;;;;;;4917149;29;20431;-66
2022/08/13 04:28:38;;;;;;;2.63;2.43;;;14.80;99.90;;;;;;4917328;29;20421;-66
2022/08/13 04:31:05;;;;;;;2.20;2.10;;;14.80;99.90;;;;;;4917666;29;20961;-66
2022/08/13 04:33:31;;;;;;;2.43;2.30;;;14.80;99.90;;;;;;4934974;29;20442;-66
2022/08/13 04:35:57;;;;;;;2.60;2.43;;;14.80;99.90;;;;;;4938529;29;20421;-65
2022/08/13 04:38:23;;;;;;;2.90;2.70;;;14.90;99.90;;;;;;4940173;28;20427;-66
2022/08/13 04:40:50;;;;;;;2.30;2.07;;;15.00;99.90;;;;;;4940166;29;20504;-66
2022/08/13 04:43:16;;;;;;;2.90;2.70;;;15.20;99.90;;;;;;4939707;28;20826;-66
2022/08/13 04:45:42;;;;;;;2.57;2.37;;;15.50;99.90;;;;;;4938477;29;20468;-66
2022/08/13 04:48:13;;;;;;;2.43;2.33;;;15.70;99.90;;;;;;4939935;29;20189;-66
2022/08/13 04:50:41;;;;;;;3.60;3.30;;;15.80;99.90;;;;;;4939900;29;21038;-66
2022/08/13 04:53:19;;;;;;;2.90;2.37;;;16.00;99.90;;;;;;4939502;29;20420;-66
2022/08/13 04:55:45;;;;;;;3.07;2.70;;;16.20;99.50;;;;;;4954775;28;21010;-66
2022/08/13 04:58:11;;;;;;;2.57;2.43;;;16.50;99.20;;;;;;4939933;29;20508;-66
2022/08/13 05:00:37;;;;;;;2.70;2.50;;;16.70;98.70;;;;;;4935557;29;20429;-66
2022/08/13 05:03:14;;;;;;;3.63;2.70;;;16.90;98.10;;;;;;4925917;29;20205;-67
2022/08/13 05:05:42;;;;;;;2.37;2.27;;;17.30;97.30;;;;;;4930265;29;20193;-66
2022/08/13 05:08:08;;;;;;;2.70;2.60;;;17.80;95.90;;;;;;4923414;29;20921;-66
2022/08/13 05:10:38;;;;;;;2.93;2.73;;;18.10;94.30;;;;;;4920607;29;20471;-66
2022/08/13 05:13:27;;;;;;;2.70;2.50;;;18.30;92.90;;;;;;4933235;29;20428;-66
2022/08/13 05:15:55;;;;;;;2.63;2.43;;;18.50;92.30;;;;;;4938115;29;20413;-66
2022/08/13 05:18:21;;;;;;;2.80;2.60;;;18.60;91.70;;;;;;4934391;29;20815;-67
2022/08/13 05:20:47;;;;;;;3.10;2.43;;;18.70;91.10;;;;;;4939308;28;20515;-67
2022/08/13 05:23:16;;;;;;;2.73;2.53;;;18.60;90.80;;;;;;4938837;29;20421;-67
2022/08/13 05:25:42;;;;;;;2.50;2.30;;;18.50;90.80;;;;;;4939652;29;20197;-67
2022/08/13 05:28:08;;;;;;;3.57;3.07;;;18.20;91.50;;;;;;4938433;29;20836;-67
2022/08/13 05:30:38;;;;;;;2.90;2.73;;;18.00;92.20;;;;;;4924455;29;20495;-68
2022/08/13 05:33:15;;;;;;;2.80;2.60;;;17.90;92.50;;;;;;4919689;29;20423;-66
2022/08/13 05:35:46;;;;;;;4.40;3.20;;;17.80;92.90;;;;;;4919736;29;20407;-67
2022/08/13 05:38:12;;;;;;;2.60;2.50;;;17.80;93.20;;;;;;4920044;29;20494;-68
2022/08/13 05:40:38;;;;;;;3.17;3.00;;;18.00;93.20;;;;;;4920028;29;20901;-68
2022/08/13 05:43:14;;;;;;;2.57;2.40;;;18.10;93.00;;;;;;4919738;29;20764;-68
2022/08/13 05:45:41;;;;;;;2.70;2.50;;;18.20;92.70;;;;;;4919356;29;20506;-66
2022/08/13 05:48:08;;;;;;;3.73;3.37;;;18.20;92.70;;;;;;4919763;29;20428;-67
2022/08/13 05:50:34;;;;;;;3.00;2.80;;;18.20;92.50;;;;;;4929452;29;20466;-67
2022/08/13 05:53:08;;;;;;;2.93;2.73;;;18.30;92.40;;;;;;4938295;29;20429;-65
2022/08/13 05:55:35;;;;;;;3.10;2.90;;;18.40;92.20;;;;;;4932571;29;20500;-68
2022/08/13 05:58:02;;;;;;;3.13;2.93;;;18.50;92.00;;;;;;4919853;29;20416;-68
2022/08/13 06:03:27;;;;;;;2.93;2.73;;;18.80;91.70;;;;;;4931090;29;20520;-67
2022/08/13 06:05:59;;;;;;;3.40;3.20;;;18.80;91.30;;;;;;4938398;29;20440;-66
2022/08/13 06:08:30;;;;;;;2.60;2.50;;;18.90;91.10;;;;;;4928098;29;20422;-68
2022/08/13 06:10:57;;;;;;;2.70;2.53;;;19.00;91.00;;;;;;4920867;29;20480;-68
2022/08/13 06:13:24;;;;;;;3.40;3.10;;;19.00;90.60;;;;;;4922957;29;20446;-66
2022/08/13 06:15:58;;;;;;;4.33;3.60;;;19.00;90.60;;;;;;4934265;29;20821;-68
2022/08/13 06:18:29;;;;;;;2.67;2.57;;;19.00;90.40;;;;;;4949200;29;20427;-66
2022/08/13 06:20:57;;;;;;;3.03;2.80;;;19.00;90.40;;;;;;4937715;29;20509;-67
2022/08/13 06:23:25;;;;;;;3.10;2.90;;;19.00;90.40;;;;;;4938248;28;20452;-66
2022/08/13 06:25:52;;;;;;;3.17;2.93;;;18.90;90.60;;;;;;4927536;28;20554;-67
2022/08/13 06:28:26;;;;;;;2.90;2.70;;;18.90;90.60;;;;;;4937738;29;20850;-67
2022/08/13 06:30:53;;;;;;;2.70;2.50;;;18.90;90.40;;;;;;4939816;29;20509;-68
2022/08/13 06:33:21;;;;;;;2.97;2.77;;;19.00;90.30;;;;;;4949034;28;20767;-67
2022/08/13 06:35:53;;;;;;;3.47;3.27;;;18.90;90.40;;;;;;4937815;29;20415;-67
2022/08/13 06:38:22;;;;;;;3.47;3.17;;;19.00;90.70;;;;;;4936568;28;20821;-68
2022/08/13 06:40:49;;;;;;;4.13;3.70;;;19.00;90.30;;;;;;4937245;29;20446;-68
2022/08/13 06:43:18;;;;;;;3.40;3.10;;;19.20;90.20;;;;;;4936223;29;20425;-68
2022/08/13 06:45:45;;;;;;;3.13;2.93;;;19.30;89.90;;;;;;4930397;29;20494;-68
2022/08/13 06:48:11;;;;;;;3.43;3.20;;;19.40;88.80;;;;;;4937751;29;20417;-66
2022/08/13 06:50:37;;;;;;;3.17;2.97;;;19.40;89.00;;;;;;4937612;29;20465;-69
2022/08/13 06:53:08;;;;;;;3.37;3.17;;;19.40;88.70;;;;;;4934926;29;20451;-66
2022/08/13 06:55:36;;;;;;;2.70;2.60;;;19.50;88.40;;;;;;4927678;29;20175;-68
2022/08/13 06:58:07;;;;;;;3.13;2.90;;;19.70;88.30;;;;;;4917439;29;20430;-68
2022/08/13 07:00:35;;;;;;;3.60;3.30;;;19.90;87.60;;;;;;4920563;29;21302;-68
2022/08/13 07:03:02;;;;;;;2.63;2.43;;;20.00;87.80;;;;;;4931109;29;20434;-69
2022/08/13 07:05:36;;;;;;;2.90;2.70;;;20.10;86.90;;;;;;4928297;29;20437;-68
2022/08/13 07:08:04;;;;;;;3.10;2.80;;;20.20;86.50;;;;;;4918155;29;20456;-69
2022/08/13 07:10:31;;;;;;;2.93;2.73;;;20.30;85.90;;;;;;4918036;29;20576;-68
2022/08/13 07:13:00;;;;;;;2.80;2.60;;;20.30;85.50;;;;;;4917506;29;20452;-69
2022/08/13 07:15:25;;;;;;;4.30;2.73;;;20.40;85.40;;;;;;4924399;29;20480;-69
2022/08/13 07:17:52;;;;;;;2.83;2.70;;;20.40;85.10;;;;;;4936581;29;20914;-69
2022/08/13 07:20:18;;;;;;;2.70;2.50;;;20.50;84.60;;;;;;4935648;29;20417;-67
2022/08/13 07:22:44;;;;;;;2.90;2.70;;;20.60;84.70;;;;;;4935239;29;20477;-67
2022/08/13 07:25:11;;;;;;;2.90;2.70;;;20.60;84.30;;;;;;4930991;29;20478;-67
2022/08/13 07:27:39;;;;;;;3.30;3.10;;;20.70;83.90;;;;;;4936671;29;20427;-68
2022/08/13 07:30:05;;;;;;;2.73;2.63;;;20.80;83.80;;;;;;4936737;29;20471;-70
2022/08/13 07:32:38;;;;;;;2.67;2.53;;;21.00;84.00;;;;;;4935991;29;20517;-70
2022/08/13 07:35:04;;;;;;;2.50;2.40;;;21.20;82.90;;;;;;4935606;29;20548;-69
2022/08/13 07:37:30;;;;;;;2.60;2.50;;;21.60;82.50;;;;;;4918796;29;20422;-68
2022/08/13 07:39:58;;;;;;;2.30;2.10;;;22.10;81.10;;;;;;4917899;29;20426;-70
2022/08/13 07:42:25;;;;;;;2.67;2.50;;;22.70;79.30;;;;;;4942831;29;20418;-70
2022/08/13 07:44:52;;;;;;;2.33;2.23;;;23.30;77.40;;;;;;4936389;29;20434;-69
2022/08/13 07:47:19;;;;;;;9.80;8.50;;;24.20;74.80;;;;;;4951152;29;20414;-70
2022/08/13 07:49:46;;;;;;;3.50;3.30;;;25.50;69.90;;;;;;4919055;29;20499;-69
2022/08/13 07:52:15;;;;;;;2.80;2.60;;;26.80;67.40;;;;;;4917294;29;20466;-68
2022/08/13 07:54:46;;;;;;;3.00;2.80;;;28.40;64.30;;;;;;4918119;29;20534;-67
2022/08/13 07:57:12;;;;;;;2.90;2.70;;;30.00;58.30;;;;;;4917427;29;20748;-67
2022/08/13 07:59:38;;;;;;;4.33;2.90;;;31.20;56.00;;;;;;4917555;29;20400;-69
2022/08/13 08:02:06;;;;;;;2.67;2.57;;;32.30;52.70;;;;;;4917475;29;20178;-68
2022/08/13 08:04:37;;;;;;;2.80;2.60;;;32.80;52.40;;;;;;4916901;28;20797;-68
2022/08/13 08:07:04;;;;;;;2.60;2.40;;;33.50;50.60;;;;;;4922712;29;20404;-69
2022/08/13 08:09:31;;;;;;;3.23;3.03;;;34.20;50.10;;;;;;4935994;29;20376;-70
2022/08/13 08:14:50;;;;;;;2.90;2.70;;;35.40;47.30;;;;;;4935824;29;20858;-73
2022/08/13 08:17:17;;;;;;;3.07;2.87;;;35.80;46.40;;;;;;4935270;29;20384;-73
2022/08/13 08:19:44;;;;;;;3.37;3.17;;;36.10;46.20;;;;;;4934292;29;20421;-69
2022/08/13 08:22:13;;;;;;;2.57;2.47;;;36.40;45.30;;;;;;4932184;28;20459;-68
2022/08/13 08:24:39;;;;;;;3.40;3.10;;;36.10;45.30;;;;;;4949699;28;20477;-71
2022/08/13 08:27:10;;;;;;;3.40;3.20;;;35.80;45.50;;;;;;4935147;29;20414;-67
2022/08/13 08:29:40;;;;;;;3.00;2.80;;;35.70;45.50;;;;;;4935777;29;20422;-66
2022/08/13 08:32:08;;;;;;;3.73;3.53;;;35.30;45.30;;;;;;4934182;29;20461;-68
2022/08/13 08:34:36;;;;;;;3.40;3.10;;;34.90;46.10;;;;;;4935143;28;20433;-62
2022/08/13 08:37:03;;;;;;;5.60;3.00;;;34.80;46.10;;;;;;4935020;29;20434;-67
2022/08/13 08:45:02;;;;;;;3.53;3.23;;;33.30;47.20;;;;;;4934242;29;20465;-67
2022/08/13 08:47:33;;;;;;;2.97;2.77;;;32.40;48.20;;;;;;4934034;29;20392;-69
2022/08/13 08:49:59;;;;;;;3.10;2.90;;;31.40;49.80;;;;;;4932526;29;20395;-66
2022/08/13 08:55:13;;;;;;;2.90;2.70;;;29.90;51.20;;;;;;4915211;29;20942;-66
2022/08/13 08:57:44;;;;;;;2.63;2.53;;;29.30;52.20;;;;;;4915640;29;20436;-68
2022/08/13 09:00:14;;;;;;;3.00;2.80;;;28.60;53.50;;;;;;4915775;29;20415;-67
2022/08/13 09:02:40;;;;;;;2.90;2.70;;;28.30;54.00;;;;;;4915356;29;20501;-68
2022/08/13 09:05:21;;;;;;;3.10;2.97;;;28.80;54.10;;;;;;4917801;29;20467;-67
2022/08/13 09:07:47;;;;;;;3.00;2.80;;;29.40;53.80;;;;;;4932929;29;20432;-67
2022/08/13 09:10:16;;;;;;;2.73;2.60;;;30.20;53.10;;;;;;4935907;29;20444;-70
2022/08/13 09:12:43;;;;;;;2.77;2.57;;;30.90;51.10;;;;;;4929970;29;20445;-68
2022/08/13 09:15:14;;;;;;;4.53;2.73;;;31.40;50.50;;;;;;4916877;29;20442;-68
2022/08/13 09:17:40;;;;;;;3.30;3.10;;;31.70;49.80;;;;;;4917834;29;20505;-69
2022/08/13 09:20:15;;;;;;;3.37;3.17;;;31.60;50.10;;;;;;4916760;29;20826;-70
2022/08/13 09:22:44;;;;;;;2.73;2.60;;;31.20;49.90;;;;;;4934438;29;20174;-67
2022/08/13 09:25:14;;;;;;;2.50;2.40;;;30.30;50.60;;;;;;4920367;29;20412;-70
2022/08/13 09:27:43;;;;;;;2.77;2.63;;;30.20;51.60;;;;;;4926856;29;20404;-66
2022/08/13 09:30:10;;;;;;;2.40;2.30;;;30.20;51.70;;;;;;4938848;29;20391;-70
2022/08/13 09:32:37;;;;;;;2.47;2.37;;;30.80;51.60;;;;;;4938854;29;20392;-67
2022/08/13 09:35:05;;;;;;;2.90;2.70;;;31.50;51.00;;;;;;4939312;29;20823;-67
2022/08/13 09:37:32;;;;;;;2.87;2.67;;;32.10;49.80;;;;;;4929138;29;20401;-67
2022/08/13 09:40:07;;;;;;;4.13;3.07;;;32.70;49.10;;;;;;4920489;29;20481;-66
2022/08/13 09:42:44;;;;;;;2.80;2.70;;;33.40;48.60;;;;;;4934323;29;20422;-67
2022/08/13 09:45:10;;;;;;;2.97;2.87;;;34.30;48.00;;;;;;4919788;29;20404;-67
2022/08/13 09:47:36;;;;;;;2.80;2.70;;;35.10;46.10;;;;;;4919851;29;20421;-68
2022/08/13 09:50:03;;;;;;;2.40;2.30;;;35.90;45.40;;;;;;4919752;29;20264;-70
2022/08/13 09:52:28;;;;;;;2.20;2.10;;;36.10;42.30;;;;;;4930384;29;20238;-67
2022/08/13 09:54:57;;;;;;;2.67;2.57;;;35.90;42.30;;;;;;4927006;29;20458;-66
2022/08/13 09:57:24;;;;;;;2.70;2.40;;;35.80;41.80;;;;;;4919559;29;20585;-68
2022/08/13 09:59:50;;;;;;;2.30;2.20;;;35.30;42.00;;;;;;4919646;29;20396;-69
2022/08/13 10:02:16;;;;;;;2.13;2.03;;;34.80;42.60;;;;;;4933859;29;20396;-68
2022/08/13 10:04:42;;;;;;;2.37;2.27;;;35.00;42.80;;;;;;4919556;29;20405;-69
2022/08/13 10:07:09;;;;;;;2.37;2.27;;;35.10;43.60;;;;;;4930091;29;20174;-69
2022/08/13 10:09:36;;;;;;;3.00;2.60;;;35.00;43.10;;;;;;4938571;29;20469;-69
2022/08/13 10:12:02;;;;;;;2.60;2.50;;;34.10;43.60;;;;;;4938516;29;20818;-70
2022/08/13 10:14:28;;;;;;;2.43;2.33;;;33.40;43.90;;;;;;4937932;29;20811;-66
2022/08/13 10:16:54;;;;;;;2.30;2.10;;;32.60;45.00;;;;;;4938336;29;20425;-68
2022/08/13 10:19:20;;;;;;;2.00;1.90;;;32.00;45.80;;;;;;4938365;29;20233;-67
2022/08/13 10:21:46;;;;;;;2.20;2.10;;;31.50;45.90;;;;;;4928159;29;20413;-68
2022/08/13 10:24:12;;;;;;;2.00;1.80;;;31.10;46.00;;;;;;4918780;29;20413;-69
2022/08/13 10:26:40;;;;;;;4.63;2.20;;;31.10;46.30;;;;;;4919310;29;20407;-70
2022/08/13 10:29:08;;;;;;;3.50;1.97;;;31.00;46.10;;;;;;4920022;29;20183;-66
2022/08/13 10:31:34;;;;;;;1.80;1.70;;;30.50;46.10;;;;;;4937946;29;20451;-68
2022/08/13 10:34:00;;;;;;;1.90;1.80;;;30.00;46.00;;;;;;4937584;29;20950;-68
2022/08/13 10:36:27;;;;;;;2.10;2.00;;;29.40;46.90;;;;;;4938113;29;20391;-66
2022/08/13 10:38:52;;;;;;;2.10;2.00;;;28.80;47.60;;;;;;4938019;29;20882;-70
2022/08/13 10:41:18;;;;;;;1.83;1.73;;;28.60;47.90;;;;;;4932027;29;20460;-65
2022/08/13 10:43:44;;;;;;;1.87;1.77;;;28.30;48.20;;;;;;4918343;29;20248;-67
2022/08/13 10:46:16;;;;;;;1.87;1.77;;;28.30;49.10;;;;;;4918555;29;20231;-67
2022/08/13 10:48:43;;;;;;;1.80;1.73;;;28.70;49.00;;;;;;4918751;29;20669;-70
2022/08/13 10:51:09;;;;;;;1.67;1.57;;;29.50;47.60;;;;;;4918914;29;20583;-66
2022/08/13 10:56:20;;;;;;;1.80;1.70;;;30.90;46.00;;;;;;4927036;29;20216;-68
2022/08/13 10:58:45;;;;;;;1.90;1.80;;;31.70;44.90;;;;;;4937839;29;20818;-64
2022/08/13 11:01:11;;;;;;;2.60;2.40;;;32.00;43.70;;;;;;4937842;29;20388;-68
2022/08/13 11:03:37;;;;;;;2.00;1.90;;;32.40;43.80;;;;;;4935784;29;20549;-68
2022/08/13 11:06:06;;;;;;;2.27;2.00;;;32.60;43.60;;;;;;4937375;29;20564;-67
2022/08/13 11:08:37;;;;;;;2.10;1.87;;;32.60;42.30;;;;;;4937544;29;20428;-69
2022/08/13 11:11:08;;;;;;;2.43;2.33;;;32.60;42.70;;;;;;4928866;29;20432;-67
2022/08/13 11:13:36;;;;;;;1.93;1.83;;;32.30;42.90;;;;;;4918029;29;20912;-70
2022/08/13 11:16:05;;;;;;;2.03;1.93;;;32.00;43.50;;;;;;4918447;29;20876;-67
2022/08/13 11:18:32;;;;;;;2.33;2.13;;;31.60;44.20;;;;;;4918642;29;20493;-68
2022/08/13 11:21:07;;;;;;;3.03;2.13;;;31.10;43.90;;;;;;4918285;29;20389;-68
2022/08/13 11:23:34;;;;;;;2.30;2.20;;;30.80;44.60;;;;;;4917981;29;20429;-69
2022/08/13 11:26:00;;;;;;;1.80;1.70;;;30.30;44.80;;;;;;4928017;29;20426;-71
2022/08/13 11:28:25;;;;;;;2.10;1.90;;;29.90;45.30;;;;;;4937191;29;20765;-70
2022/08/13 11:30:53;;;;;;;3.03;2.03;;;29.60;46.00;;;;;;4935953;29;20201;-68
2022/08/13 11:33:20;;;;;;;2.10;2.00;;;29.50;46.50;;;;;;4936443;29;20178;-66
2022/08/13 11:35:46;;;;;;;2.00;1.90;;;29.40;46.20;;;;;;4937168;29;20406;-70
2022/08/13 11:38:13;;;;;;;2.30;2.17;;;29.10;46.20;;;;;;4936964;28;20425;-69
2022/08/13 11:40:44;;;;;;;1.90;1.80;;;28.90;46.60;;;;;;4929089;29;20185;-69
2022/08/13 11:43:10;;;;;;;2.07;1.97;;;28.70;47.00;;;;;;4917269;29;20419;-69
2022/08/13 11:45:36;;;;;;;2.00;1.90;;;28.60;47.50;;;;;;4917967;29;20422;-69
2022/08/13 11:48:04;;;;;;;2.30;2.07;;;28.60;47.40;;;;;;4917772;29;20222;-67
2022/08/13 11:50:30;;;;;;;2.50;2.40;;;28.70;48.20;;;;;;4917877;29;20208;-67
2022/08/13 11:52:56;;;;;;;2.00;1.90;;;28.80;47.50;;;;;;4917532;29;20750;-66
2022/08/13 11:55:22;;;;;;;2.87;2.67;;;28.80;47.30;;;;;;4926687;29;20450;-69
2022/08/13 11:57:47;;;;;;;2.00;1.90;;;28.70;47.30;;;;;;4936840;29;20182;-70
2022/08/13 12:00:14;;;;;;;2.20;2.10;;;28.60;47.30;;;;;;4936803;29;20506;-74
2022/08/13 12:02:40;;;;;;;2.60;2.40;;;28.60;47.70;;;;;;4936296;29;20206;-67
2022/08/13 12:05:06;;;;;;;1.80;1.70;;;28.70;47.70;;;;;;4936494;28;20455;-69
2022/08/13 12:07:32;;;;;;;2.17;2.07;;;28.80;47.40;;;;;;4936695;29;20561;-71
2022/08/13 12:09:57;;;;;;;2.23;2.13;;;28.90;47.20;;;;;;4927949;29;20483;-69
2022/08/13 12:12:23;;;;;;;1.77;1.67;;;28.90;46.90;;;;;;4917081;29;20227;-67
2022/08/13 12:14:52;;;;;;;2.33;2.13;;;28.80;46.60;;;;;;4917353;29;20280;-69
2022/08/13 12:17:18;;;;;;;2.20;2.10;;;28.80;46.30;;;;;;4917479;29;20917;-66
2022/08/13 12:19:44;;;;;;;2.03;1.87;;;28.80;46.50;;;;;;4917448;29;20412;-69
2022/08/13 12:22:10;;;;;;;2.00;1.90;;;28.70;46.50;;;;;;4917254;29;20399;-69
2022/08/13 12:24:35;;;;;;;2.03;1.93;;;28.80;46.70;;;;;;4924329;29;20663;-66
2022/08/13 12:27:01;;;;;;;2.10;2.00;;;28.90;46.20;;;;;;4932223;29;20184;-68
2022/08/13 12:29:27;;;;;;;1.93;1.83;;;28.90;45.70;;;;;;4935864;29;20316;-68
2022/08/13 12:31:52;;;;;;;2.20;2.10;;;29.00;45.30;;;;;;4936012;29;20202;-69
2022/08/13 12:34:18;;;;;;;1.87;1.77;;;29.00;45.50;;;;;;4934632;29;20188;-68
2022/08/13 12:36:44;;;;;;;2.03;1.93;;;29.00;45.50;;;;;;4936117;29;20177;-68
2022/08/13 12:39:09;;;;;;;1.60;1.50;;;29.00;45.60;;;;;;4930042;29;20210;-71
2022/08/13 12:41:35;;;;;;;2.20;2.10;;;28.80;45.70;;;;;;4917272;29;20585;-66
2022/08/13 12:44:00;;;;;;;1.90;1.80;;;28.80;45.50;;;;;;4916647;29;20204;-69
2022/08/13 12:46:26;;;;;;;2.10;2.00;;;28.70;45.10;;;;;;4917153;29;20260;-70
2022/08/13 12:48:51;;;;;;;1.40;1.40;;;28.70;45.20;;;;;;4916947;29;20245;-67
2022/08/13 12:51:17;;;;;;;1.80;1.70;;;28.60;45.50;;;;;;4917143;29;20211;-70
2022/08/13 12:53:43;;;;;;;1.47;1.47;;;28.70;45.60;;;;;;4920833;29;20202;-66
2022/08/13 12:56:08;;;;;;;2.30;1.93;;;28.70;45.70;;;;;;4937164;29;20168;-66
2022/08/13 12:58:34;;;;;;;1.80;1.70;;;28.70;45.50;;;;;;4939595;29;20182;-68
2022/08/13 13:01:00;;;;;;;1.73;1.63;;;28.80;45.60;;;;;;4939864;29;20187;-70
2022/08/13 13:03:26;;;;;;;1.40;1.30;;;28.70;45.50;;;;;;4939484;28;20192;-68
2022/08/13 13:05:53;;;;;;;2.10;2.00;;;28.70;45.30;;;;;;4939556;29;21006;-68
2022/08/13 13:08:20;;;;;;;1.77;1.67;;;28.80;45.50;;;;;;4936114;29;20483;-68
2022/08/13 13:10:47;;;;;;;2.13;2.03;;;28.90;44.70;;;;;;4920601;29;20450;-69
2022/08/13 13:13:15;;;;;;;1.90;1.80;;;28.90;44.30;;;;;;4920212;29;20410;-68
2022/08/13 13:15:41;;;;;;;2.00;1.90;;;28.90;44.20;;;;;;4920646;29;20785;-68
2022/08/13 13:18:18;;;;;;;1.90;1.80;;;28.90;44.20;;;;;;4921473;29;20459;-66
2022/08/13 13:20:46;;;;;;;1.80;1.70;;;28.90;44.80;;;;;;4920575;29;20410;-66
2022/08/13 13:23:13;;;;;;;2.13;1.97;;;28.90;45.10;;;;;;4934493;29;20419;-66
2022/08/13 13:25:43;;;;;;;1.97;1.77;;;28.90;45.30;;;;;;4919125;29;20939;-67
2022/08/13 13:28:11;;;;;;;1.90;1.80;;;28.80;45.40;;;;;;4920409;28;21043;-68
2022/08/13 13:30:37;;;;;;;4.10;1.83;;;28.80;45.40;;;;;;4920094;29;20469;-71
2022/08/13 13:33:09;;;;;;;2.07;1.80;;;28.70;45.50;;;;;;4935184;29;20427;-69
2022/08/13 13:35:37;;;;;;;1.87;1.77;;;28.70;45.80;;;;;;4920415;29;20407;-66
2022/08/13 13:38:03;;;;;;;1.87;1.77;;;28.70;45.40;;;;;;4920257;29;20426;-70
2022/08/13 13:40:29;;;;;;;1.60;1.50;;;28.70;45.20;;;;;;4919994;29;20415;-69
2022/08/13 13:42:57;;;;;;;1.70;1.60;;;28.80;45.00;;;;;;4934318;29;20822;-67
2022/08/13 13:45:23;;;;;;;1.80;1.70;;;28.80;44.80;;;;;;4919875;29;20281;-67
2022/08/13 13:47:48;;;;;;;2.07;1.97;;;28.80;44.10;;;;;;4936106;29;20438;-70
2022/08/13 13:50:14;;;;;;;2.70;1.60;;;28.80;43.90;;;;;;4939041;29;20832;-67
2022/08/13 13:52:40;;;;;;;1.67;1.57;;;28.70;44.90;;;;;;4938490;29;20268;-69
2022/08/13 13:55:06;;;;;;;5.80;1.90;;;28.80;44.10;;;;;;4938739;28;20204;-69
2022/08/13 13:57:31;;;;;;;1.80;1.70;;;28.80;44.60;;;;;;4938852;29;20266;-66
2022/08/13 13:59:57;;;;;;;1.67;1.57;;;28.90;44.00;;;;;;4938906;28;20178;-65
2022/08/13 14:02:23;;;;;;;2.60;2.00;;;28.80;44.00;;;;;;4923144;28;20294;-66
2022/08/13 14:04:49;;;;;;;1.90;1.80;;;28.80;44.30;;;;;;4921711;29;20708;-72
2022/08/13 14:07:16;;;;;;;1.80;1.70;;;28.80;45.10;;;;;;4919413;29;20420;-70
2022/08/13 14:09:42;;;;;;;1.90;1.80;;;28.80;44.30;;;;;;4919689;29;20632;-69
2022/08/13 14:12:09;;;;;;;1.53;1.53;;;28.90;44.40;;;;;;4919543;29;20467;-71
2022/08/13 14:14:35;;;;;;;1.90;1.80;;;29.00;44.00;;;;;;4919392;29;20197;-67
2022/08/13 14:17:03;;;;;;;1.70;1.60;;;29.00;43.80;;;;;;4933359;29;20917;-69
2022/08/13 14:19:30;;;;;;;1.70;1.60;;;29.00;43.70;;;;;;4939179;29;20181;-68
2022/08/13 14:21:57;;;;;;;1.90;1.80;;;29.00;43.70;;;;;;4938503;29;20435;-67
2022/08/13 14:24:24;;;;;;;1.80;1.70;;;29.00;44.00;;;;;;4937744;29;20441;-67
2022/08/13 14:26:50;;;;;;;1.80;1.70;;;29.10;44.00;;;;;;4938378;29;20398;-67
2022/08/13 14:29:16;;;;;;;1.90;1.80;;;29.10;43.70;;;;;;4938401;29;20922;-67
2022/08/13 14:31:43;;;;;;;2.10;1.73;;;29.10;43.80;;;;;;4924170;29;20798;-65
2022/08/13 14:34:10;;;;;;;1.83;1.73;;;29.10;44.00;;;;;;4918675;29;20447;-70
2022/08/13 14:36:36;;;;;;;1.60;1.50;;;29.10;43.80;;;;;;4919240;29;20402;-66
2022/08/13 14:39:04;;;;;;;1.80;1.70;;;29.00;43.60;;;;;;4919467;29;20762;-67
2022/08/13 14:41:34;;;;;;;1.73;1.63;;;29.00;43.60;;;;;;4919056;29;20258;-68
2022/08/13 14:44:00;;;;;;;1.43;1.43;;;29.00;44.00;;;;;;4918677;29;20424;-68
2022/08/13 14:46:26;;;;;;;2.17;1.97;;;29.10;44.30;;;;;;4932279;29;20451;-68
2022/08/13 14:48:54;;;;;;;1.97;1.87;;;29.20;44.60;;;;;;4952657;28;20873;-65
2022/08/13 14:51:23;;;;;;;1.80;1.70;;;29.20;44.40;;;;;;4937744;29;20776;-65
2022/08/13 14:53:52;;;;;;;1.90;1.80;;;29.20;44.00;;;;;;4937538;29;20418;-71
2022/08/13 14:56:19;;;;;;;1.80;1.70;;;29.20;44.10;;;;;;4937935;29;20437;-68
2022/08/13 14:58:45;;;;;;;6.13;2.43;;;29.20;44.10;;;;;;4937828;29;20447;-68
2022/08/13 15:01:11;;;;;;;2.13;1.93;;;29.20;43.80;;;;;;4922851;29;20471;-66
2022/08/13 15:03:41;;;;;;;2.40;1.93;;;29.20;44.00;;;;;;4918201;29;20216;-67
2022/08/13 15:06:07;;;;;;;1.80;1.70;;;29.20;44.00;;;;;;4919003;29;20212;-70
2022/08/13 15:08:33;;;;;;;1.93;1.83;;;29.20;44.40;;;;;;4918487;29;20434;-65
2022/08/13 15:11:02;;;;;;;2.60;1.90;;;29.20;44.20;;;;;;4918447;29;20205;-66
2022/08/13 15:13:28;;;;;;;2.43;2.33;;;29.20;44.50;;;;;;4917954;29;20207;-65
2022/08/13 15:15:53;;;;;;;2.17;2.07;;;29.20;44.00;;;;;;4931296;29;20436;-69
2022/08/13 15:18:22;;;;;;;1.97;1.87;;;29.20;44.00;;;;;;4936742;28;20185;-69
2022/08/13 15:20:52;;;;;;;2.33;2.23;;;29.10;44.10;;;;;;4937428;29;20181;-69
2022/08/13 15:23:20;;;;;;;2.00;1.90;;;29.00;43.80;;;;;;4936907;28;20418;-64
2022/08/13 15:25:46;;;;;;;2.20;2.10;;;29.00;44.00;;;;;;4937311;28;20428;-68
2022/08/13 15:28:12;;;;;;;2.30;2.20;;;29.00;44.00;;;;;;4937132;29;20423;-67
2022/08/13 15:30:42;;;;;;;2.27;2.17;;;28.90;44.00;;;;;;4923458;29;20462;-69
2022/08/13 15:33:18;;;;;;;2.53;2.33;;;28.90;43.90;;;;;;4916478;29;20871;-66
2022/08/13 15:35:47;;;;;;;2.20;2.10;;;28.80;44.00;;;;;;4918290;29;20386;-68
2022/08/13 15:38:25;;;;;;;2.70;2.60;;;28.80;44.10;;;;;;4917939;29;20410;-70
2022/08/13 15:41:00;;;;;;;2.40;2.20;;;28.70;44.20;;;;;;4917928;29;20398;-69
2022/08/13 15:43:29;;;;;;;1.67;1.67;;;28.70;44.40;;;;;;4917339;29;20508;-66
2022/08/13 15:45:55;;;;;;;2.30;2.10;;;28.70;44.40;;;;;;4934991;29;20439;-70
2022/08/13 15:48:25;;;;;;;2.30;2.20;;;28.70;44.60;;;;;;4936941;29;20423;-67
2022/08/13 15:50:54;;;;;;;2.27;2.10;;;28.80;44.60;;;;;;4936851;29;20828;-67
2022/08/13 15:53:25;;;;;;;2.10;2.00;;;28.80;44.60;;;;;;4936363;29;20447;-69
2022/08/13 15:55:52;;;;;;;1.90;1.80;;;28.90;44.50;;;;;;4936588;29;20396;-69
2022/08/13 15:58:19;;;;;;;2.50;2.33;;;28.90;44.50;;;;;;4936834;29;20432;-66
2022/08/13 16:00:49;;;;;;;2.53;2.43;;;28.90;44.70;;;;;;4918344;29;20418;-70
2022/08/13 16:03:17;;;;;;;1.90;1.80;;;28.90;44.30;;;;;;4917133;29;20402;-66
2022/08/13 16:05:45;;;;;;;2.17;2.07;;;28.90;44.20;;;;;;4917639;29;20472;-70
2022/08/13 16:08:12;;;;;;;1.77;1.67;;;28.90;44.10;;;;;;4917594;29;20420;-66
2022/08/13 16:10:38;;;;;;;1.97;1.87;;;28.80;44.50;;;;;;4917999;29;20473;-66
2022/08/13 16:13:06;;;;;;;1.83;1.73;;;28.80;44.40;;;;;;4917172;29;20428;-67
2022/08/13 16:15:32;;;;;;;1.90;1.80;;;28.80;44.20;;;;;;4935550;29;20435;-67
2022/08/13 16:17:59;;;;;;;2.50;2.40;;;28.70;44.20;;;;;;4936891;29;20479;-69
2022/08/13 16:20:27;;;;;;;2.17;2.07;;;28.70;44.30;;;;;;4936224;29;20418;-69
2022/08/13 16:22:56;;;;;;;2.63;2.53;;;28.60;44.50;;;;;;4936015;29;20780;-70
2022/08/13 16:25:25;;;;;;;2.30;2.20;;;28.60;44.80;;;;;;4936275;28;20878;-70
2022/08/13 16:27:53;;;;;;;2.17;2.07;;;28.60;45.00;;;;;;4950918;29;20422;-68
2022/08/13 16:30:22;;;;;;;1.90;1.80;;;28.60;45.10;;;;;;4917222;29;20421;-68
2022/08/13 16:32:50;;;;;;;2.40;2.30;;;28.60;44.40;;;;;;4919617;29;20486;-70
2022/08/13 16:35:16;;;;;;;2.20;2.10;;;28.60;44.40;;;;;;4917202;29;20435;-68
2022/08/13 16:37:42;;;;;;;2.10;2.00;;;28.50;44.40;;;;;;4917228;29;20426;-69
2022/08/13 16:40:13;;;;;;;2.43;2.10;;;28.50;44.60;;;;;;4916973;29;20870;-67
2022/08/13 16:42:39;;;;;;;2.20;2.10;;;28.50;44.30;;;;;;4916716;29;20411;-68
2022/08/13 16:45:04;;;;;;;2.20;2.00;;;28.50;44.40;;;;;;4917150;29;20435;-67
2022/08/13 16:47:31;;;;;;;2.13;2.03;;;28.40;44.50;;;;;;4935157;29;20581;-69
2022/08/13 16:49:58;;;;;;;2.00;1.90;;;28.40;44.10;;;;;;4936136;29;20452;-67
2022/08/13 16:52:24;;;;;;;2.70;2.60;;;28.40;44.20;;;;;;4935693;29;20505;-70
2022/08/13 16:54:50;;;;;;;2.30;2.20;;;28.40;43.90;;;;;;4936008;29;20452;-66
2022/08/13 16:57:16;;;;;;;2.30;2.20;;;28.40;44.00;;;;;;4936082;29;20492;-67
2022/08/13 16:59:43;;;;;;;2.60;2.43;;;28.40;44.20;;;;;;4936082;29;20506;-68
2022/08/13 17:02:10;;;;;;;2.23;2.13;;;28.30;44.10;;;;;;4932389;28;20190;-67
2022/08/13 17:09:10;;;;;;;2.27;2.17;;;28.30;44.50;;;;;;4917142;29;20824;-66
2022/08/13 17:10:12;;;;;;;2.17;2.07;;;28.30;44.40;;;;;;4916617;29;20463;-65
2022/08/13 17:12:39;;;;;;;2.20;2.10;;;28.30;44.50;;;;;;4916330;29;20468;-66
2022/08/13 17:15:05;;;;;;;2.23;2.13;;;28.20;44.90;;;;;;4919612;29;20446;-69